sensor_id;sensor_type;location;lat;lon;timestamp;pressure;altitude;pressure_sealevel;temperature;humidity
6435;BME280;3250;42.694;23.278;2022-12-07T00:01:37;94816.09;;;6.69;92.54
6435;BME280;3250;42.694;23.278;2022-12-07T00:04:04;94816.22;;;6.61;92.99
6435;BME280;3250;42.694;23.278;2022-12-07T00:06:38;94813.59;;;6.61;93.34
6435;BME280;3250;42.694;23.278;2022-12-07T00:09:05;94819.28;;;6.65;93.15
6435;BME280;3250;42.694;23.278;2022-12-07T00:11:31;94820.91;;;6.66;92.90
6435;BME280;3250;42.694;23.278;2022-12-07T00:13:59;94818.06;;;6.67;92.91
6435;BME280;3250;42.694;23.278;2022-12-07T00:16:27;94809.69;;;6.72;92.26
6435;BME280;3250;42.694;23.278;2022-12-07T00:18:53;94815.44;;;6.67;92.76
6435;BME280;3250;42.694;23.278;2022-12-07T00:21:21;94811.22;;;6.66;92.99
6435;BME280;3250;42.694;23.278;2022-12-07T00:23:48;94818.16;;;6.74;92.78
6435;BME280;3250;42.694;23.278;2022-12-07T00:26:25;94817.75;;;6.77;92.51
6435;BME280;3250;42.694;23.278;2022-12-07T00:28:53;94818.56;;;6.77;92.55
6435;BME280;3250;42.694;23.278;2022-12-07T00:31:20;94810.66;;;6.71;92.56
6435;BME280;3250;42.694;23.278;2022-12-07T00:33:46;94816.53;;;6.73;92.77
6435;BME280;3250;42.694;23.278;2022-12-07T00:36:17;94819.69;;;6.68;92.95
6435;BME280;3250;42.694;23.278;2022-12-07T00:38:43;94786.53;;;6.48;93.52
6435;BME280;3250;42.694;23.278;2022-12-07T00:41:14;94824.19;;;6.74;93.74
6435;BME280;3250;42.694;23.278;2022-12-07T00:43:40;94789.00;;;6.56;93.48
6435;BME280;3250;42.694;23.278;2022-12-07T00:46:07;94816.34;;;6.74;93.13
6435;BME280;3250;42.694;23.278;2022-12-07T00:48:33;94795.28;;;6.61;93.36
6435;BME280;3250;42.694;23.278;2022-12-07T00:50:59;94821.19;;;6.77;92.94
6435;BME280;3250;42.694;23.278;2022-12-07T00:53:24;94811.91;;;6.75;92.85
6435;BME280;3250;42.694;23.278;2022-12-07T00:55:49;94805.88;;;6.74;92.49
6435;BME280;3250;42.694;23.278;2022-12-07T00:58:15;94804.00;;;6.68;92.92
6435;BME280;3250;42.694;23.278;2022-12-07T01:00:42;94806.19;;;6.65;93.12
6435;BME280;3250;42.694;23.278;2022-12-07T01:03:10;94785.78;;;6.54;92.79
6435;BME280;3250;42.694;23.278;2022-12-07T01:05:36;94778.66;;;6.26;93.42
6435;BME280;3250;42.694;23.278;2022-12-07T01:08:01;94804.44;;;6.29;94.47
6435;BME280;3250;42.694;23.278;2022-12-07T01:10:27;94769.59;;;6.22;94.30
6435;BME280;3250;42.694;23.278;2022-12-07T01:12:53;94793.13;;;6.43;94.18
6435;BME280;3250;42.694;23.278;2022-12-07T01:15:19;94795.59;;;6.52;94.19
6435;BME280;3250;42.694;23.278;2022-12-07T01:17:44;94794.66;;;6.59;94.04
6435;BME280;3250;42.694;23.278;2022-12-07T01:20:10;94793.47;;;6.62;93.88
6435;BME280;3250;42.694;23.278;2022-12-07T01:22:40;94791.81;;;6.54;94.01
6435;BME280;3250;42.694;23.278;2022-12-07T01:25:07;94794.16;;;6.49;93.99
6435;BME280;3250;42.694;23.278;2022-12-07T01:27:34;94761.50;;;6.38;93.84
6435;BME280;3250;42.694;23.278;2022-12-07T01:30:00;94750.59;;;6.35;93.43
6435;BME280;3250;42.694;23.278;2022-12-07T01:32:26;94788.44;;;6.60;93.99
6435;BME280;3250;42.694;23.278;2022-12-07T01:34:52;94718.88;;;6.17;93.89
6435;BME280;3250;42.694;23.278;2022-12-07T01:37:18;94788.63;;;6.59;93.77
6435;BME280;3250;42.694;23.278;2022-12-07T01:39:44;94767.78;;;6.44;93.09
6435;BME280;3250;42.694;23.278;2022-12-07T01:42:10;94778.09;;;6.52;93.22
6435;BME280;3250;42.694;23.278;2022-12-07T01:47:38;94786.41;;;6.56;93.27
6435;BME280;3250;42.694;23.278;2022-12-07T01:50:04;94780.53;;;6.54;93.90
6435;BME280;3250;42.694;23.278;2022-12-07T01:52:34;94783.97;;;6.54;93.81
6435;BME280;3250;42.694;23.278;2022-12-07T01:55:04;94786.00;;;6.59;93.77
6435;BME280;3250;42.694;23.278;2022-12-07T01:57:33;94777.94;;;6.54;93.76
6435;BME280;3250;42.694;23.278;2022-12-07T02:00:00;94768.47;;;6.53;93.66
6435;BME280;3250;42.694;23.278;2022-12-07T02:02:28;94770.88;;;6.54;93.89
6435;BME280;3250;42.694;23.278;2022-12-07T02:04:57;94771.69;;;6.55;94.06
6435;BME280;3250;42.694;23.278;2022-12-07T02:07:24;94760.31;;;6.41;94.25
6435;BME280;3250;42.694;23.278;2022-12-07T02:09:50;94772.81;;;6.46;94.46
6435;BME280;3250;42.694;23.278;2022-12-07T02:12:16;94766.03;;;6.51;94.42
6435;BME280;3250;42.694;23.278;2022-12-07T02:14:41;94757.78;;;6.48;94.37
6435;BME280;3250;42.694;23.278;2022-12-07T02:20:17;94761.63;;;6.52;93.89
6435;BME280;3250;42.694;23.278;2022-12-07T02:28:29;94759.31;;;6.63;93.74
6435;BME280;3250;42.694;23.278;2022-12-07T02:31:01;94762.28;;;6.60;93.69
6435;BME280;3250;42.694;23.278;2022-12-07T02:33:35;94760.47;;;6.61;93.57
6435;BME280;3250;42.694;23.278;2022-12-07T02:36:06;94747.19;;;6.56;93.77
6435;BME280;3250;42.694;23.278;2022-12-07T02:38:40;94755.53;;;6.44;93.82
6435;BME280;3250;42.694;23.278;2022-12-07T02:41:18;94754.66;;;6.37;94.12
6435;BME280;3250;42.694;23.278;2022-12-07T02:43:48;94766.47;;;6.33;94.04
6435;BME280;3250;42.694;23.278;2022-12-07T02:46:37;94757.63;;;6.34;94.08
6435;BME280;3250;42.694;23.278;2022-12-07T02:49:05;94756.63;;;6.35;93.98
6435;BME280;3250;42.694;23.278;2022-12-07T02:51:32;94754.78;;;6.29;94.69
6435;BME280;3250;42.694;23.278;2022-12-07T02:53:58;94747.66;;;6.23;94.34
6435;BME280;3250;42.694;23.278;2022-12-07T02:56:50;94749.09;;;6.26;94.10
6435;BME280;3250;42.694;23.278;2022-12-07T03:02:55;94742.97;;;6.12;94.30
6435;BME280;3250;42.694;23.278;2022-12-07T03:08:16;94734.03;;;6.06;94.07
6435;BME280;3250;42.694;23.278;2022-12-07T03:13:23;94707.34;;;5.90;94.04
6435;BME280;3250;42.694;23.278;2022-12-07T03:16:09;94732.63;;;6.04;94.00
6435;BME280;3250;42.694;23.278;2022-12-07T03:18:44;94732.25;;;6.07;93.91
6435;BME280;3250;42.694;23.278;2022-12-07T03:21:18;94732.25;;;6.07;93.70
6435;BME280;3250;42.694;23.278;2022-12-07T03:23:49;94737.84;;;6.04;93.37
6435;BME280;3250;42.694;23.278;2022-12-07T03:26:18;94741.19;;;5.98;93.82
6435;BME280;3250;42.694;23.278;2022-12-07T03:28:48;94700.72;;;5.73;93.96
6435;BME280;3250;42.694;23.278;2022-12-07T03:36:37;94733.38;;;5.83;94.08
6435;BME280;3250;42.694;23.278;2022-12-07T03:41:40;94710.78;;;5.76;94.34
6435;BME280;3250;42.694;23.278;2022-12-07T03:44:06;94720.59;;;5.74;94.79
6435;BME280;3250;42.694;23.278;2022-12-07T03:51:44;94740.97;;;5.78;94.91
6435;BME280;3250;42.694;23.278;2022-12-07T03:54:32;94734.53;;;5.81;95.38
6435;BME280;3250;42.694;23.278;2022-12-07T03:57:01;94728.97;;;5.84;94.62
6435;BME280;3250;42.694;23.278;2022-12-07T03:59:27;94727.34;;;5.83;94.52
6435;BME280;3250;42.694;23.278;2022-12-07T04:01:55;94732.56;;;5.83;94.62
6435;BME280;3250;42.694;23.278;2022-12-07T04:04:23;94736.06;;;5.90;94.76
6435;BME280;3250;42.694;23.278;2022-12-07T04:06:49;94729.22;;;5.89;94.38
6435;BME280;3250;42.694;23.278;2022-12-07T04:09:15;94726.72;;;5.95;94.46
6435;BME280;3250;42.694;23.278;2022-12-07T04:11:41;94711.13;;;5.87;94.09
6435;BME280;3250;42.694;23.278;2022-12-07T04:14:07;94725.03;;;5.88;93.96
6435;BME280;3250;42.694;23.278;2022-12-07T04:16:55;94722.56;;;5.86;94.47
6435;BME280;3250;42.694;23.278;2022-12-07T04:19:26;94725.72;;;5.82;94.59
6435;BME280;3250;42.694;23.278;2022-12-07T04:21:51;94709.75;;;5.70;94.64
6435;BME280;3250;42.694;23.278;2022-12-07T04:24:17;94726.97;;;5.86;94.75
6435;BME280;3250;42.694;23.278;2022-12-07T04:26:43;94731.22;;;5.87;94.26
6435;BME280;3250;42.694;23.278;2022-12-07T04:29:09;94729.13;;;5.82;94.29
6435;BME280;3250;42.694;23.278;2022-12-07T04:31:36;94731.75;;;5.82;94.33
6435;BME280;3250;42.694;23.278;2022-12-07T04:34:02;94690.50;;;5.56;94.20
6435;BME280;3250;42.694;23.278;2022-12-07T04:36:28;94723.75;;;5.84;94.10
6435;BME280;3250;42.694;23.278;2022-12-07T04:38:54;94707.13;;;5.70;93.76
6435;BME280;3250;42.694;23.278;2022-12-07T04:41:21;94720.88;;;5.79;94.00
6435;BME280;3250;42.694;23.278;2022-12-07T04:43:53;94738.41;;;5.85;93.93
6435;BME280;3250;42.694;23.278;2022-12-07T04:46:20;94735.91;;;5.77;94.23
6435;BME280;3250;42.694;23.278;2022-12-07T04:48:45;94740.25;;;5.69;94.25
6435;BME280;3250;42.694;23.278;2022-12-07T04:51:10;94736.75;;;5.62;94.79
6435;BME280;3250;42.694;23.278;2022-12-07T04:53:36;94732.97;;;5.65;94.44
6435;BME280;3250;42.694;23.278;2022-12-07T04:56:01;94732.25;;;5.56;94.59
6435;BME280;3250;42.694;23.278;2022-12-07T04:58:27;94725.81;;;5.52;95.29
6435;BME280;3250;42.694;23.278;2022-12-07T05:00:55;94730.75;;;5.62;94.59
6435;BME280;3250;42.694;23.278;2022-12-07T05:03:21;94743.31;;;5.73;93.86
6435;BME280;3250;42.694;23.278;2022-12-07T05:05:46;94737.91;;;5.75;93.68
6435;BME280;3250;42.694;23.278;2022-12-07T05:08:11;94747.53;;;5.74;93.41
6435;BME280;3250;42.694;23.278;2022-12-07T05:10:37;94746.38;;;5.77;93.41
6435;BME280;3250;42.694;23.278;2022-12-07T05:13:02;94739.06;;;5.72;94.08
6435;BME280;3250;42.694;23.278;2022-12-07T05:15:27;94737.19;;;5.66;94.41
6435;BME280;3250;42.694;23.278;2022-12-07T05:17:53;94731.53;;;5.62;94.36
6435;BME280;3250;42.694;23.278;2022-12-07T05:20:18;94729.66;;;5.56;94.70
6435;BME280;3250;42.694;23.278;2022-12-07T05:22:43;94739.34;;;5.62;94.51
6435;BME280;3250;42.694;23.278;2022-12-07T05:25:09;94721.81;;;5.56;94.60
6435;BME280;3250;42.694;23.278;2022-12-07T05:27:34;94741.69;;;5.72;94.10
6435;BME280;3250;42.694;23.278;2022-12-07T05:30:00;94748.00;;;5.63;94.13
6435;BME280;3250;42.694;23.278;2022-12-07T05:32:25;94732.78;;;5.66;93.98
6435;BME280;3250;42.694;23.278;2022-12-07T05:34:51;94723.25;;;5.59;93.78
6435;BME280;3250;42.694;23.278;2022-12-07T05:37:16;94696.75;;;5.41;94.00
6435;BME280;3250;42.694;23.278;2022-12-07T05:39:41;94734.53;;;5.59;94.03
6435;BME280;3250;42.694;23.278;2022-12-07T05:42:10;94716.53;;;5.50;94.25
6435;BME280;3250;42.694;23.278;2022-12-07T05:44:46;94690.91;;;5.24;93.99
6435;BME280;3250;42.694;23.278;2022-12-07T05:47:12;94730.63;;;5.55;94.55
6435;BME280;3250;42.694;23.278;2022-12-07T05:49:38;94722.22;;;5.53;94.75
6435;BME280;3250;42.694;23.278;2022-12-07T05:52:04;94726.41;;;5.54;94.49
6435;BME280;3250;42.694;23.278;2022-12-07T05:54:30;94708.25;;;5.46;95.01
6435;BME280;3250;42.694;23.278;2022-12-07T05:56:56;94704.28;;;5.50;94.58
6435;BME280;3250;42.694;23.278;2022-12-07T05:59:22;94726.28;;;5.62;94.82
6435;BME280;3250;42.694;23.278;2022-12-07T06:02:12;94723.34;;;5.65;95.21
6435;BME280;3250;42.694;23.278;2022-12-07T06:04:44;94700.69;;;5.51;94.80
6435;BME280;3250;42.694;23.278;2022-12-07T06:07:11;94715.06;;;5.62;95.18
6435;BME280;3250;42.694;23.278;2022-12-07T06:09:37;94696.19;;;5.45;95.06
6435;BME280;3250;42.694;23.278;2022-12-07T06:12:03;94730.81;;;5.68;95.64
6435;BME280;3250;42.694;23.278;2022-12-07T06:14:47;94725.03;;;5.73;95.13
6435;BME280;3250;42.694;23.278;2022-12-07T06:17:13;94734.06;;;5.71;95.09
6435;BME280;3250;42.694;23.278;2022-12-07T06:19:39;94736.28;;;5.74;94.77
6435;BME280;3250;42.694;23.278;2022-12-07T06:22:05;94736.56;;;5.79;94.81
6435;BME280;3250;42.694;23.278;2022-12-07T06:24:32;94736.34;;;5.80;94.52
6435;BME280;3250;42.694;23.278;2022-12-07T06:26:57;94735.81;;;5.85;94.56
6435;BME280;3250;42.694;23.278;2022-12-07T06:29:23;94739.84;;;5.87;94.76
6435;BME280;3250;42.694;23.278;2022-12-07T06:31:48;94740.59;;;5.96;94.43
6435;BME280;3250;42.694;23.278;2022-12-07T06:34:16;94739.19;;;6.00;94.54
6435;BME280;3250;42.694;23.278;2022-12-07T06:36:42;94733.63;;;6.03;94.66
6435;BME280;3250;42.694;23.278;2022-12-07T06:39:08;94749.19;;;6.11;94.60
6435;BME280;3250;42.694;23.278;2022-12-07T06:41:38;94749.41;;;6.16;94.82
6435;BME280;3250;42.694;23.278;2022-12-07T06:44:05;94757.31;;;6.23;94.53
6435;BME280;3250;42.694;23.278;2022-12-07T06:46:31;94755.31;;;6.25;94.20
6435;BME280;3250;42.694;23.278;2022-12-07T06:48:57;94753.53;;;6.25;93.74
6435;BME280;3250;42.694;23.278;2022-12-07T06:51:22;94742.66;;;6.22;93.87
6435;BME280;3250;42.694;23.278;2022-12-07T06:53:48;94754.16;;;6.27;93.89
6435;BME280;3250;42.694;23.278;2022-12-07T06:56:13;94761.88;;;6.35;94.28
6435;BME280;3250;42.694;23.278;2022-12-07T06:58:40;94753.09;;;6.43;93.74
6435;BME280;3250;42.694;23.278;2022-12-07T07:01:13;94727.25;;;6.33;94.12
6435;BME280;3250;42.694;23.278;2022-12-07T07:03:39;94750.38;;;6.58;93.83
6435;BME280;3250;42.694;23.278;2022-12-07T07:06:05;94756.88;;;6.62;93.54
6435;BME280;3250;42.694;23.278;2022-12-07T07:08:34;94760.13;;;6.64;93.20
6435;BME280;3250;42.694;23.278;2022-12-07T07:11:00;94754.06;;;6.63;92.99
6435;BME280;3250;42.694;23.278;2022-12-07T07:13:25;94755.63;;;6.58;92.75
6435;BME280;3250;42.694;23.278;2022-12-07T07:15:51;94758.44;;;6.56;93.08
6435;BME280;3250;42.694;23.278;2022-12-07T07:18:16;94752.63;;;6.61;93.57
6435;BME280;3250;42.694;23.278;2022-12-07T07:20:41;94742.00;;;6.62;93.50
6435;BME280;3250;42.694;23.278;2022-12-07T07:23:07;94743.28;;;6.73;93.08
6435;BME280;3250;42.694;23.278;2022-12-07T07:25:33;94758.84;;;6.81;93.41
6435;BME280;3250;42.694;23.278;2022-12-07T07:27:59;94757.41;;;6.78;93.33
6435;BME280;3250;42.694;23.278;2022-12-07T07:30:24;94759.47;;;6.83;93.37
6435;BME280;3250;42.694;23.278;2022-12-07T07:32:50;94763.97;;;6.96;92.74
6435;BME280;3250;42.694;23.278;2022-12-07T07:35:15;94744.63;;;6.90;92.96
6435;BME280;3250;42.694;23.278;2022-12-07T07:37:41;94754.78;;;7.06;93.29
6435;BME280;3250;42.694;23.278;2022-12-07T07:40:08;94759.53;;;7.24;93.46
6435;BME280;3250;42.694;23.278;2022-12-07T07:42:33;94760.06;;;7.47;92.78
6435;BME280;3250;42.694;23.278;2022-12-07T07:44:59;94752.31;;;7.67;91.41
6435;BME280;3250;42.694;23.278;2022-12-07T07:47:24;94756.00;;;7.86;90.59
6435;BME280;3250;42.694;23.278;2022-12-07T07:49:50;94760.72;;;8.17;89.74
6435;BME280;3250;42.694;23.278;2022-12-07T07:52:15;94740.56;;;8.30;88.06
6435;BME280;3250;42.694;23.278;2022-12-07T07:54:40;94734.78;;;8.42;86.27
6435;BME280;3250;42.694;23.278;2022-12-07T07:57:06;94764.28;;;8.70;85.41
6435;BME280;3250;42.694;23.278;2022-12-07T07:59:31;94765.50;;;8.81;85.78
6435;BME280;3250;42.694;23.278;2022-12-07T08:01:57;94764.66;;;8.93;84.50
6435;BME280;3250;42.694;23.278;2022-12-07T08:04:22;94769.91;;;9.00;84.01
6435;BME280;3250;42.694;23.278;2022-12-07T08:06:47;94766.28;;;9.01;83.48
6435;BME280;3250;42.694;23.278;2022-12-07T08:09:13;94766.09;;;8.96;83.77
6435;BME280;3250;42.694;23.278;2022-12-07T08:11:38;94765.25;;;9.02;83.96
6435;BME280;3250;42.694;23.278;2022-12-07T08:14:04;94755.97;;;8.99;83.34
6435;BME280;3250;42.694;23.278;2022-12-07T08:16:30;94763.47;;;8.96;83.37
6435;BME280;3250;42.694;23.278;2022-12-07T08:18:55;94764.84;;;8.92;83.26
6435;BME280;3250;42.694;23.278;2022-12-07T08:21:21;94765.25;;;9.02;83.46
6435;BME280;3250;42.694;23.278;2022-12-07T08:23:47;94735.59;;;8.88;83.28
6435;BME280;3250;42.694;23.278;2022-12-07T08:26:14;94760.03;;;8.95;82.93
6435;BME280;3250;42.694;23.278;2022-12-07T08:28:40;94739.22;;;8.74;82.44
6435;BME280;3250;42.694;23.278;2022-12-07T08:31:10;94761.25;;;8.80;82.17
6435;BME280;3250;42.694;23.278;2022-12-07T08:33:36;94737.81;;;8.52;82.06
6435;BME280;3250;42.694;23.278;2022-12-07T08:36:10;94771.09;;;8.51;82.78
6435;BME280;3250;42.694;23.278;2022-12-07T08:38:36;94755.34;;;8.31;84.03
6435;BME280;3250;42.694;23.278;2022-12-07T08:41:02;94761.19;;;8.40;84.14
6435;BME280;3250;42.694;23.278;2022-12-07T08:43:28;94748.44;;;8.30;83.97
6435;BME280;3250;42.694;23.278;2022-12-07T08:48:35;94744.81;;;8.18;84.48
6435;BME280;3250;42.694;23.278;2022-12-07T08:51:02;94737.31;;;8.09;84.78
6435;BME280;3250;42.694;23.278;2022-12-07T08:53:29;94749.03;;;8.19;85.23
6435;BME280;3250;42.694;23.278;2022-12-07T08:55:55;94748.03;;;8.20;85.22
6435;BME280;3250;42.694;23.278;2022-12-07T08:58:21;94735.13;;;8.19;85.40
6435;BME280;3250;42.694;23.278;2022-12-07T09:00:47;94743.81;;;8.26;84.31
6435;BME280;3250;42.694;23.278;2022-12-07T09:03:12;94729.25;;;8.17;84.97
6435;BME280;3250;42.694;23.278;2022-12-07T09:05:38;94716.53;;;8.14;85.54
6435;BME280;3250;42.694;23.278;2022-12-07T09:08:03;94724.47;;;8.33;85.46
6435;BME280;3250;42.694;23.278;2022-12-07T09:10:30;94728.72;;;8.35;84.62
6435;BME280;3250;42.694;23.278;2022-12-07T09:12:56;94719.22;;;8.40;85.29
6435;BME280;3250;42.694;23.278;2022-12-07T09:15:26;94677.03;;;8.15;85.28
6435;BME280;3250;42.694;23.278;2022-12-07T09:17:53;94688.75;;;8.26;84.95
6435;BME280;3250;42.694;23.278;2022-12-07T09:20:18;94728.13;;;8.52;84.71
6435;BME280;3250;42.694;23.278;2022-12-07T09:22:43;94723.50;;;8.61;85.09
6435;BME280;3250;42.694;23.278;2022-12-07T09:25:12;94724.88;;;8.57;85.13
6435;BME280;3250;42.694;23.278;2022-12-07T09:27:37;94714.78;;;8.34;85.63
6435;BME280;3250;42.694;23.278;2022-12-07T09:30:04;94710.91;;;8.23;85.52
6435;BME280;3250;42.694;23.278;2022-12-07T09:32:30;94710.31;;;8.21;86.04
6435;BME280;3250;42.694;23.278;2022-12-07T09:34:55;94704.88;;;8.29;86.42
6435;BME280;3250;42.694;23.278;2022-12-07T09:37:20;94704.91;;;8.43;86.28
6435;BME280;3250;42.694;23.278;2022-12-07T09:39:47;94698.47;;;8.52;84.93
6435;BME280;3250;42.694;23.278;2022-12-07T09:42:37;94693.22;;;8.58;84.92
6435;BME280;3250;42.694;23.278;2022-12-07T09:45:06;94660.13;;;8.51;85.34
6435;BME280;3250;42.694;23.278;2022-12-07T09:47:35;94689.97;;;8.76;84.40
6435;BME280;3250;42.694;23.278;2022-12-07T09:50:06;94693.22;;;8.78;83.98
6435;BME280;3250;42.694;23.278;2022-12-07T09:52:32;94697.25;;;8.81;84.50
6435;BME280;3250;42.694;23.278;2022-12-07T09:54:58;94680.88;;;8.92;84.14
6435;BME280;3250;42.694;23.278;2022-12-07T09:57:29;94688.72;;;9.05;83.64
6435;BME280;3250;42.694;23.278;2022-12-07T10:00:01;94673.81;;;8.99;83.05
6435;BME280;3250;42.694;23.278;2022-12-07T10:04:59;94690.56;;;8.85;82.30
6435;BME280;3250;42.694;23.278;2022-12-07T10:07:26;94670.81;;;8.69;82.95
6435;BME280;3250;42.694;23.278;2022-12-07T10:09:51;94680.06;;;8.85;83.16
6435;BME280;3250;42.694;23.278;2022-12-07T10:12:16;94641.50;;;8.85;83.43
6435;BME280;3250;42.694;23.278;2022-12-07T10:15:04;94659.84;;;9.05;82.27
6435;BME280;3250;42.694;23.278;2022-12-07T10:17:38;94664.78;;;9.39;82.55
6435;BME280;3250;42.694;23.278;2022-12-07T10:23:00;94657.47;;;9.86;80.78
6435;BME280;3250;42.694;23.278;2022-12-07T10:25:35;94651.50;;;9.72;79.80
6435;BME280;3250;42.694;23.278;2022-12-07T10:28:21;94637.84;;;9.57;80.48
6435;BME280;3250;42.694;23.278;2022-12-07T10:33:36;94645.63;;;9.70;80.01
6435;BME280;3250;42.694;23.278;2022-12-07T10:36:36;94631.69;;;9.76;79.96
6435;BME280;3250;42.694;23.278;2022-12-07T10:39:14;94634.25;;;9.83;79.49
6435;BME280;3250;42.694;23.278;2022-12-07T10:42:00;94634.00;;;9.91;79.98
6435;BME280;3250;42.694;23.278;2022-12-07T10:44:31;94608.78;;;9.83;78.41
6435;BME280;3250;42.694;23.278;2022-12-07T11:01:16;94609.56;;;9.08;82.45
6435;BME280;3250;42.694;23.278;2022-12-07T11:06:58;94601.66;;;9.53;83.56
6435;BME280;3250;42.694;23.278;2022-12-07T11:15:25;94591.63;;;10.37;76.77
6435;BME280;3250;42.694;23.278;2022-12-07T11:23:38;94578.63;;;10.61;75.91
6435;BME280;3250;42.694;23.278;2022-12-07T11:32:04;94575.94;;;10.85;73.85
6435;BME280;3250;42.694;23.278;2022-12-07T11:34:52;94565.63;;;10.66;74.20
6435;BME280;3250;42.694;23.278;2022-12-07T11:37:37;94556.78;;;10.60;75.08
6435;BME280;3250;42.694;23.278;2022-12-07T11:42:37;94540.75;;;10.43;74.88
6435;BME280;3250;42.694;23.278;2022-12-07T11:45:20;94550.28;;;10.63;75.02
6435;BME280;3250;42.694;23.278;2022-12-07T11:47:54;94568.72;;;10.81;74.31
6435;BME280;3250;42.694;23.278;2022-12-07T11:56:12;94554.97;;;10.79;74.89
6435;BME280;3250;42.694;23.278;2022-12-07T12:06:38;94537.03;;;10.87;74.56
6435;BME280;3250;42.694;23.278;2022-12-07T12:20:13;94518.25;;;10.84;74.76
6435;BME280;3250;42.694;23.278;2022-12-07T12:22:54;94519.34;;;10.94;73.92
6435;BME280;3250;42.694;23.278;2022-12-07T12:25:23;94518.66;;;10.99;74.14
6435;BME280;3250;42.694;23.278;2022-12-07T12:27:50;94517.06;;;10.98;74.35
6435;BME280;3250;42.694;23.278;2022-12-07T12:32:51;94502.00;;;10.87;74.41
6435;BME280;3250;42.694;23.278;2022-12-07T12:37:46;94472.09;;;10.81;75.04
6435;BME280;3250;42.694;23.278;2022-12-07T12:45:21;94472.75;;;10.95;74.38
6435;BME280;3250;42.694;23.278;2022-12-07T12:48:28;94489.09;;;11.15;73.61
6435;BME280;3250;42.694;23.278;2022-12-07T12:54:04;94495.81;;;11.11;73.94
6435;BME280;3250;42.694;23.278;2022-12-07T12:59:24;94496.44;;;11.25;73.64
6435;BME280;3250;42.694;23.278;2022-12-07T13:02:05;94493.38;;;11.28;73.26
6435;BME280;3250;42.694;23.278;2022-12-07T13:05:02;94502.78;;;11.35;73.41
6435;BME280;3250;42.694;23.278;2022-12-07T13:20:44;94500.78;;;11.19;72.84
6435;BME280;3250;42.694;23.278;2022-12-07T13:23:10;94485.06;;;11.13;73.13
6435;BME280;3250;42.694;23.278;2022-12-07T13:25:51;94494.06;;;11.23;72.78
6435;BME280;3250;42.694;23.278;2022-12-07T13:28:18;94489.13;;;11.27;72.61
6435;BME280;3250;42.694;23.278;2022-12-07T13:31:13;94488.72;;;11.12;73.11
6435;BME280;3250;42.694;23.278;2022-12-07T13:33:43;94492.09;;;11.01;73.49
6435;BME280;3250;42.694;23.278;2022-12-07T13:36:18;94483.50;;;10.93;74.11
6435;BME280;3250;42.694;23.278;2022-12-07T13:38:50;94479.72;;;10.89;74.14
6435;BME280;3250;42.694;23.278;2022-12-07T13:41:17;94481.78;;;10.99;73.91
6435;BME280;3250;42.694;23.278;2022-12-07T13:44:02;94485.09;;;10.94;74.12
6435;BME280;3250;42.694;23.278;2022-12-07T13:49:21;94467.66;;;10.64;75.43
6435;BME280;3250;42.694;23.278;2022-12-07T13:51:47;94479.56;;;10.66;75.89
6435;BME280;3250;42.694;23.278;2022-12-07T13:54:13;94456.88;;;10.65;75.47
6435;BME280;3250;42.694;23.278;2022-12-07T13:56:40;94479.03;;;10.76;75.71
6435;BME280;3250;42.694;23.278;2022-12-07T13:59:13;94478.41;;;10.80;75.67
6435;BME280;3250;42.694;23.278;2022-12-07T14:01:39;94470.31;;;10.64;76.17
6435;BME280;3250;42.694;23.278;2022-12-07T14:04:37;94472.69;;;10.65;76.72
6435;BME280;3250;42.694;23.278;2022-12-07T14:07:21;94469.75;;;10.73;76.88
6435;BME280;3250;42.694;23.278;2022-12-07T14:10:01;94472.16;;;10.75;76.56
6435;BME280;3250;42.694;23.278;2022-12-07T14:12:29;94470.13;;;10.77;76.49
6435;BME280;3250;42.694;23.278;2022-12-07T14:14:56;94471.38;;;10.74;76.42
6435;BME280;3250;42.694;23.278;2022-12-07T14:17:23;94472.63;;;10.72;76.65
6435;BME280;3250;42.694;23.278;2022-12-07T14:20:00;94481.75;;;10.69;76.85
6435;BME280;3250;42.694;23.278;2022-12-07T14:22:38;94481.97;;;10.68;76.86
6435;BME280;3250;42.694;23.278;2022-12-07T14:25:17;94490.31;;;10.65;76.99
6435;BME280;3250;42.694;23.278;2022-12-07T14:30:18;94482.78;;;10.50;77.54
6435;BME280;3250;42.694;23.278;2022-12-07T14:32:44;94481.84;;;10.44;77.92
6435;BME280;3250;42.694;23.278;2022-12-07T14:35:15;94482.44;;;10.46;77.87
6435;BME280;3250;42.694;23.278;2022-12-07T14:37:42;94488.94;;;10.44;77.91
6435;BME280;3250;42.694;23.278;2022-12-07T14:40:13;94480.06;;;10.38;78.06
6435;BME280;3250;42.694;23.278;2022-12-07T14:42:39;94456.78;;;10.17;78.42
6435;BME280;3250;42.694;23.278;2022-12-07T14:45:14;94479.13;;;10.33;78.03
6435;BME280;3250;42.694;23.278;2022-12-07T14:47:40;94483.66;;;10.26;78.28
6435;BME280;3250;42.694;23.278;2022-12-07T14:50:06;94479.47;;;10.18;78.51
6435;BME280;3250;42.694;23.278;2022-12-07T14:52:32;94480.53;;;10.10;78.82
6435;BME280;3250;42.694;23.278;2022-12-07T14:54:58;94478.19;;;10.02;79.04
6435;BME280;3250;42.694;23.278;2022-12-07T14:57:23;94486.72;;;9.98;79.15
6435;BME280;3250;42.694;23.278;2022-12-07T14:59:49;94492.03;;;9.91;79.50
6435;BME280;3250;42.694;23.278;2022-12-07T15:02:16;94495.28;;;9.87;80.03
6435;BME280;3250;42.694;23.278;2022-12-07T15:04:41;94478.03;;;9.72;80.05
6435;BME280;3250;42.694;23.278;2022-12-07T15:07:18;94489.56;;;9.71;80.18
6435;BME280;3250;42.694;23.278;2022-12-07T15:09:44;94491.03;;;9.61;80.97
6435;BME280;3250;42.694;23.278;2022-12-07T15:12:10;94490.94;;;9.49;81.73
6435;BME280;3250;42.694;23.278;2022-12-07T15:14:35;94498.44;;;9.45;82.05
6435;BME280;3250;42.694;23.278;2022-12-07T15:17:00;94501.97;;;9.33;82.19
6435;BME280;3250;42.694;23.278;2022-12-07T15:19:26;94488.69;;;9.21;82.52
6435;BME280;3250;42.694;23.278;2022-12-07T15:21:52;94491.16;;;9.16;82.40
6435;BME280;3250;42.694;23.278;2022-12-07T15:24:19;94463.44;;;8.89;83.11
6435;BME280;3250;42.694;23.278;2022-12-07T15:26:45;94501.53;;;9.04;83.49
6435;BME280;3250;42.694;23.278;2022-12-07T15:29:11;94501.56;;;8.98;83.70
6435;BME280;3250;42.694;23.278;2022-12-07T15:31:37;94499.97;;;8.90;83.64
6435;BME280;3250;42.694;23.278;2022-12-07T15:34:03;94505.44;;;8.82;84.32
6435;BME280;3250;42.694;23.278;2022-12-07T15:36:31;94509.91;;;8.82;85.01
6435;BME280;3250;42.694;23.278;2022-12-07T15:38:58;94514.16;;;8.76;85.30
6435;BME280;3250;42.694;23.278;2022-12-07T15:41:23;94512.53;;;8.75;84.70
6435;BME280;3250;42.694;23.278;2022-12-07T15:43:49;94510.75;;;8.69;85.12
6435;BME280;3250;42.694;23.278;2022-12-07T15:46:36;94515.41;;;8.60;85.04
6435;BME280;3250;42.694;23.278;2022-12-07T15:49:03;94522.09;;;8.56;85.23
6435;BME280;3250;42.694;23.278;2022-12-07T15:51:29;94510.22;;;8.41;85.21